Time;durP1;ratioP1;P1;durP2;ratioP2;P2;SDS_P1;SDS_P2;PMS_P1;PMS_P2;Temp;Humidity;BMP_temperature;BMP_pressure;BME280_temperature;BME280_humidity;BME280_pressure;Samples;Min_cycle;Max_cycle;Signal;HPM_P1;HPM_P2
2021/05/21 00:01:29;;;;;;;1.13;0.38;;;19.50;94.10;;;;;;5033229;28;20498;-62
2021/05/21 00:03:55;;;;;;;2.10;0.50;;;19.50;94.40;;;;;;5033863;28;20033;-62
2021/05/21 00:06:20;;;;;;;2.25;0.65;;;19.50;94.00;;;;;;5033834;28;20096;-62
2021/05/21 00:08:46;;;;;;;2.78;0.50;;;19.40;94.00;;;;;;5033957;28;20057;-64
2021/05/21 00:11:12;;;;;;;1.23;0.40;;;19.40;94.00;;;;;;5032875;28;20104;-62
2021/05/21 00:13:37;;;;;;;1.80;0.40;;;19.40;94.00;;;;;;5028461;28;20033;-62
2021/05/21 00:16:03;;;;;;;1.65;0.50;;;19.40;94.00;;;;;;5033908;28;20509;-62
2021/05/21 00:18:29;;;;;;;1.35;0.32;;;19.40;94.00;;;;;;5033309;28;20053;-63
2021/05/21 00:20:55;;;;;;;1.67;0.55;;;19.40;94.00;;;;;;5033664;28;20066;-62
2021/05/21 00:23:20;;;;;;;1.33;0.35;;;19.40;94.00;;;;;;5033133;28;20029;-61
2021/05/21 00:25:46;;;;;;;1.67;0.55;;;19.30;94.00;;;;;;5033262;28;20424;-62
2021/05/21 00:28:12;;;;;;;1.35;0.40;;;19.30;94.00;;;;;;5033158;28;20077;-61
2021/05/21 00:30:37;;;;;;;1.95;0.50;;;19.30;94.00;;;;;;5033516;28;20033;-62
2021/05/21 00:33:03;;;;;;;2.25;0.60;;;19.30;94.00;;;;;;5033684;28;20389;-62
2021/05/21 00:35:28;;;;;;;1.80;0.50;;;19.30;94.00;;;;;;5033017;28;20107;-62
2021/05/21 00:37:54;;;;;;;3.70;0.50;;;19.30;94.00;;;;;;5033355;28;20036;-62
2021/05/21 00:40:23;;;;;;;1.58;0.38;;;19.30;94.00;;;;;;5033130;28;20076;-62
2021/05/21 00:42:49;;;;;;;1.83;0.40;;;19.30;93.90;;;;;;5032995;28;20377;-62
2021/05/21 00:45:14;;;;;;;2.40;0.60;;;19.30;93.90;;;;;;5033215;28;20029;-62
2021/05/21 00:47:42;;;;;;;2.20;0.65;;;19.30;93.90;;;;;;5032664;28;20396;-61
2021/05/21 00:50:08;;;;;;;1.63;0.52;;;19.30;93.90;;;;;;5032996;28;20382;-62
2021/05/21 00:52:37;;;;;;;2.15;0.65;;;19.30;93.90;;;;;;5032778;28;20540;-62
2021/05/21 00:55:05;;;;;;;2.38;0.63;;;19.30;93.90;;;;;;5032955;28;20037;-62
2021/05/21 00:57:31;;;;;;;2.80;0.60;;;19.30;93.80;;;;;;5032557;28;20037;-62
2021/05/21 00:59:57;;;;;;;1.38;0.50;;;19.20;93.80;;;;;;5032761;28;20029;-63
2021/05/21 01:02:22;;;;;;;1.92;0.50;;;19.20;93.80;;;;;;5032501;28;20453;-62
2021/05/21 01:04:50;;;;;;;4.07;0.60;;;19.20;93.80;;;;;;5032775;28;20018;-62
2021/05/21 01:07:16;;;;;;;1.10;0.45;;;19.20;93.80;;;;;;5032270;28;20406;-61
2021/05/21 01:09:42;;;;;;;1.55;0.57;;;19.20;93.80;;;;;;5032581;28;20056;-61
2021/05/21 01:12:08;;;;;;;1.85;0.60;;;19.20;93.80;;;;;;5033097;28;20041;-62
2021/05/21 01:14:33;;;;;;;3.78;0.80;;;19.20;93.80;;;;;;5032570;28;20033;-62
2021/05/21 01:16:59;;;;;;;1.67;0.50;;;19.20;93.80;;;;;;5032154;28;20053;-63
2021/05/21 01:19:25;;;;;;;3.35;0.70;;;19.20;93.80;;;;;;5032569;28;20029;-63
2021/05/21 01:21:51;;;;;;;1.20;0.38;;;19.20;93.70;;;;;;5031888;28;20500;-63
2021/05/21 01:24:19;;;;;;;1.90;0.45;;;19.20;93.70;;;;;;5032188;28;20041;-62
2021/05/21 01:26:47;;;;;;;1.83;0.65;;;19.20;93.70;;;;;;5031875;28;20116;-62
2021/05/21 01:29:13;;;;;;;1.17;0.47;;;19.10;93.70;;;;;;5032044;28;20024;-62
2021/05/21 01:31:42;;;;;;;2.10;0.50;;;19.10;93.70;;;;;;5032059;28;20029;-61
2021/05/21 01:34:08;;;;;;;1.75;0.60;;;19.10;93.70;;;;;;5032496;28;20045;-61
2021/05/21 01:36:34;;;;;;;2.45;0.75;;;19.10;93.70;;;;;;5030554;28;20059;-62
2021/05/21 01:39:18;;;;;;;1.48;0.47;;;19.00;93.70;;;;;;5031998;28;20033;-63
2021/05/21 01:41:43;;;;;;;2.30;0.50;;;19.10;93.60;;;;;;5032189;28;20033;-63
2021/05/21 01:44:11;;;;;;;2.00;0.55;;;19.00;93.60;;;;;;5032355;28;20117;-62
2021/05/21 01:46:38;;;;;;;2.85;0.90;;;19.00;93.60;;;;;;5031967;28;20025;-61
2021/05/21 01:49:04;;;;;;;1.73;0.57;;;19.00;93.60;;;;;;5030458;28;20033;-62
2021/05/21 01:51:31;;;;;;;1.27;0.43;;;19.00;93.70;;;;;;5032241;28;20083;-62
2021/05/21 01:54:16;;;;;;;2.22;0.70;;;19.00;93.70;;;;;;5032015;28;20424;-61
2021/05/21 01:56:43;;;;;;;2.58;0.80;;;19.00;93.70;;;;;;5031529;28;20434;-60
2021/05/21 01:59:09;;;;;;;2.45;0.75;;;19.00;93.90;;;;;;5032025;28;20129;-61
2021/05/21 02:01:37;;;;;;;2.65;0.73;;;18.90;93.60;;;;;;5031615;28;20037;-62
2021/05/21 02:04:04;;;;;;;3.15;0.60;;;19.00;93.70;;;;;;5032193;28;20419;-62
2021/05/21 02:06:30;;;;;;;3.00;0.77;;;19.00;93.80;;;;;;5031864;28;20029;-62
2021/05/21 02:08:56;;;;;;;3.05;0.65;;;19.00;93.90;;;;;;5031889;28;20109;-61
2021/05/21 02:11:21;;;;;;;1.98;0.73;;;18.90;93.90;;;;;;5031247;28;20112;-62
2021/05/21 02:13:47;;;;;;;4.78;1.10;;;18.90;93.90;;;;;;5032300;28;20415;-61
2021/05/21 02:16:13;;;;;;;3.50;0.90;;;18.90;93.90;;;;;;5030017;28;20465;-63
2021/05/21 02:18:39;;;;;;;4.30;1.20;;;19.00;94.20;;;;;;5031579;28;20040;-61
2021/05/21 02:21:05;;;;;;;2.20;0.68;;;18.90;94.00;;;;;;5031920;28;20226;-61
2021/05/21 02:23:32;;;;;;;2.00;0.63;;;18.90;94.10;;;;;;5031794;28;20029;-62
2021/05/21 02:25:57;;;;;;;2.85;0.95;;;18.90;94.00;;;;;;5031315;28;20025;-63
2021/05/21 02:28:23;;;;;;;3.97;0.98;;;18.90;94.00;;;;;;5031760;28;20029;-62
2021/05/21 02:30:49;;;;;;;3.50;0.93;;;18.90;94.00;;;;;;5031220;28;20021;-61
2021/05/21 02:33:14;;;;;;;3.55;0.90;;;18.90;94.00;;;;;;5031759;28;20377;-62
2021/05/21 02:35:40;;;;;;;4.00;1.08;;;18.90;94.00;;;;;;5031680;28;20021;-62
2021/05/21 02:38:05;;;;;;;4.22;1.23;;;18.90;94.00;;;;;;5031424;28;20442;-62
2021/05/21 02:40:31;;;;;;;6.55;1.13;;;18.80;94.10;;;;;;5031356;28;20034;-62
2021/05/21 02:42:57;;;;;;;4.45;1.30;;;18.90;94.00;;;;;;5031035;28;20033;-61
2021/05/21 02:45:23;;;;;;;5.18;1.20;;;18.80;94.00;;;;;;5031184;28;20026;-61
2021/05/21 02:47:49;;;;;;;6.22;1.15;;;18.80;94.00;;;;;;5031195;28;20037;-62
2021/05/21 02:50:15;;;;;;;4.65;1.40;;;18.80;93.90;;;;;;5031536;28;20036;-61
2021/05/21 02:52:40;;;;;;;4.78;0.90;;;18.80;93.90;;;;;;5031689;28;20029;-62
2021/05/21 02:55:06;;;;;;;4.30;1.20;;;18.80;94.00;;;;;;5031665;28;20032;-62
2021/05/21 02:57:32;;;;;;;4.90;1.30;;;18.80;94.00;;;;;;5031271;28;20032;-61
2021/05/21 02:59:58;;;;;;;6.53;1.48;;;18.70;94.00;;;;;;5031289;28;20021;-62
2021/05/21 03:02:24;;;;;;;4.40;1.23;;;18.70;94.00;;;;;;5031321;28;20018;-62
2021/05/21 03:04:51;;;;;;;3.75;1.00;;;18.70;94.10;;;;;;5031585;28;20026;-63
2021/05/21 03:07:17;;;;;;;4.72;1.27;;;18.70;94.00;;;;;;5030850;28;20060;-63
2021/05/21 03:09:42;;;;;;;4.50;1.20;;;18.70;94.00;;;;;;5031805;28;20025;-63
2021/05/21 03:12:10;;;;;;;6.72;1.48;;;18.70;94.00;;;;;;5031081;28;20030;-63
2021/05/21 03:14:36;;;;;;;4.78;1.20;;;18.70;94.00;;;;;;5031190;28;20033;-63
2021/05/21 03:17:02;;;;;;;2.92;1.13;;;18.70;94.00;;;;;;5030430;28;20224;-63
2021/05/21 03:19:28;;;;;;;4.03;1.10;;;18.70;94.00;;;;;;5031492;28;20053;-63
2021/05/21 03:21:54;;;;;;;3.45;1.05;;;18.70;94.00;;;;;;5031272;28;20475;-63
2021/05/21 03:24:19;;;;;;;4.28;1.15;;;18.70;93.90;;;;;;5033774;28;20093;-63
2021/05/21 03:26:45;;;;;;;5.75;1.20;;;18.60;93.80;;;;;;5034477;28;20033;-62
2021/05/21 03:29:13;;;;;;;3.58;1.10;;;18.70;93.90;;;;;;5034385;28;20492;-63
2021/05/21 03:31:39;;;;;;;5.55;1.60;;;18.60;93.90;;;;;;5034539;28;20033;-64
2021/05/21 03:34:05;;;;;;;4.07;1.10;;;18.60;94.20;;;;;;5034447;28;20034;-64
2021/05/21 03:36:30;;;;;;;3.00;1.00;;;18.50;94.20;;;;;;5034192;28;20030;-63
2021/05/21 03:38:56;;;;;;;2.92;0.80;;;18.50;93.90;;;;;;5034604;28;20022;-62
2021/05/21 03:41:22;;;;;;;3.63;1.08;;;18.50;93.90;;;;;;5034497;28;20021;-62
2021/05/21 03:43:48;;;;;;;4.82;1.40;;;18.50;93.80;;;;;;5034658;28;20108;-62
2021/05/21 03:46:13;;;;;;;5.00;1.30;;;18.50;93.80;;;;;;5034306;28;20032;-62
2021/05/21 03:48:39;;;;;;;3.97;1.17;;;18.50;93.80;;;;;;5033979;28;20033;-62
2021/05/21 03:51:05;;;;;;;5.28;1.40;;;18.50;93.80;;;;;;5034206;28;20525;-62
2021/05/21 03:53:31;;;;;;;3.90;1.30;;;18.50;93.80;;;;;;5033642;28;20074;-63
2021/05/21 03:55:56;;;;;;;5.20;1.42;;;18.50;94.10;;;;;;5033956;28;20022;-63
2021/05/21 03:58:22;;;;;;;5.57;1.20;;;18.50;93.70;;;;;;5033995;28;20037;-62
2021/05/21 04:00:48;;;;;;;3.05;1.00;;;18.50;93.80;;;;;;5034527;28;20033;-63
2021/05/21 04:03:13;;;;;;;2.50;0.80;;;18.50;93.80;;;;;;5032561;28;20036;-63
2021/05/21 04:05:39;;;;;;;6.05;1.30;;;18.50;93.70;;;;;;5033973;28;20030;-63
2021/05/21 04:08:05;;;;;;;5.35;1.30;;;18.50;94.10;;;;;;5033909;28;20033;-63
2021/05/21 04:10:32;;;;;;;3.90;1.02;;;18.50;93.80;;;;;;5034026;28;20025;-63
2021/05/21 04:12:57;;;;;;;4.28;1.20;;;18.50;93.70;;;;;;5033653;28;20044;-63
2021/05/21 04:15:23;;;;;;;3.85;1.23;;;18.50;93.70;;;;;;5033793;28;20039;-63
2021/05/21 04:17:49;;;;;;;4.32;1.23;;;18.50;93.70;;;;;;5033804;28;20037;-62
2021/05/21 04:20:15;;;;;;;3.78;1.50;;;18.50;93.70;;;;;;5033292;28;20055;-63
2021/05/21 04:22:41;;;;;;;4.60;1.27;;;18.50;93.70;;;;;;5033832;28;20030;-62
2021/05/21 04:25:07;;;;;;;4.60;1.08;;;18.50;93.70;;;;;;5033504;28;20027;-62
2021/05/21 04:27:33;;;;;;;4.80;1.20;;;18.50;93.60;;;;;;5033287;28;20411;-63
2021/05/21 04:29:59;;;;;;;4.45;1.30;;;18.50;93.60;;;;;;5033795;28;20025;-62
2021/05/21 04:32:24;;;;;;;5.05;1.45;;;18.50;93.60;;;;;;5033598;28;20381;-63
2021/05/21 04:34:50;;;;;;;5.95;1.55;;;18.50;93.60;;;;;;5032692;28;20022;-63
2021/05/21 04:37:16;;;;;;;5.15;1.50;;;18.50;93.50;;;;;;5033440;28;20030;-63
2021/05/21 04:39:41;;;;;;;7.50;1.60;;;18.60;93.50;;;;;;5033076;28;20463;-62
2021/05/21 04:42:07;;;;;;;5.03;1.40;;;18.60;93.40;;;;;;5033145;28;20376;-63
2021/05/21 04:44:33;;;;;;;5.40;1.40;;;18.60;93.40;;;;;;5033101;28;20029;-63
2021/05/21 04:46:59;;;;;;;6.47;1.50;;;18.60;93.30;;;;;;5032458;28;20025;-63
2021/05/21 04:49:34;;;;;;;6.35;1.73;;;18.60;93.30;;;;;;5031803;28;20124;-63
2021/05/21 04:52:02;;;;;;;5.55;1.42;;;18.60;93.30;;;;;;5032951;28;20034;-62
2021/05/21 04:54:28;;;;;;;4.75;1.52;;;18.60;93.20;;;;;;5032836;28;20128;-63
2021/05/21 04:56:54;;;;;;;5.78;1.67;;;18.60;93.20;;;;;;5033054;28;20525;-63
2021/05/21 04:59:20;;;;;;;5.38;1.40;;;18.60;93.20;;;;;;5033062;28;20040;-62
2021/05/21 05:01:46;;;;;;;4.40;1.50;;;18.60;93.20;;;;;;5030487;28;20056;-63
2021/05/21 05:04:12;;;;;;;6.53;1.80;;;18.60;93.20;;;;;;5032566;28;20478;-64
2021/05/21 05:06:37;;;;;;;5.38;1.60;;;18.60;93.10;;;;;;5032481;28;20032;-63
2021/05/21 05:09:04;;;;;;;6.85;1.70;;;18.60;93.10;;;;;;5032831;28;20029;-63
2021/05/21 05:11:29;;;;;;;6.80;1.98;;;18.60;93.20;;;;;;5032254;28;20071;-63
2021/05/21 05:13:55;;;;;;;9.23;1.60;;;18.50;93.10;;;;;;5032919;28;20029;-62
2021/05/21 05:16:20;;;;;;;5.63;1.38;;;18.60;93.10;;;;;;5033020;28;20579;-63
2021/05/21 05:18:49;;;;;;;6.45;1.45;;;18.60;93.00;;;;;;5032531;28;20381;-63
2021/05/21 05:21:15;;;;;;;5.13;1.58;;;18.70;92.90;;;;;;5032800;28;20032;-64
2021/05/21 05:23:40;;;;;;;6.40;1.85;;;18.70;92.80;;;;;;5032140;28;20370;-62
2021/05/21 05:26:06;;;;;;;6.88;2.03;;;18.80;92.70;;;;;;5030993;28;20057;-62
2021/05/21 05:28:32;;;;;;;7.00;1.73;;;18.70;92.70;;;;;;5032219;28;20029;-63
2021/05/21 05:30:57;;;;;;;7.18;2.05;;;18.70;92.70;;;;;;5030180;28;20029;-62
2021/05/21 05:33:23;;;;;;;7.90;1.95;;;18.80;92.60;;;;;;5032758;28;20033;-63
2021/05/21 05:35:48;;;;;;;7.32;1.88;;;18.80;92.60;;;;;;5031879;28;20497;-63
2021/05/21 05:38:14;;;;;;;7.05;1.63;;;18.80;92.60;;;;;;5032052;28;20045;-63
2021/05/21 05:40:40;;;;;;;7.38;1.70;;;18.70;92.60;;;;;;5032324;28;20102;-64
2021/05/21 05:43:06;;;;;;;5.55;1.80;;;18.70;92.60;;;;;;5031810;28;20029;-63
2021/05/21 05:45:31;;;;;;;7.07;1.92;;;18.70;92.50;;;;;;5031675;28;20021;-63
2021/05/21 05:47:57;;;;;;;7.65;1.67;;;18.70;92.60;;;;;;5032013;28;20435;-63
2021/05/21 05:50:23;;;;;;;6.57;2.10;;;18.70;92.60;;;;;;5032216;28;20060;-64
2021/05/21 05:52:49;;;;;;;7.30;1.88;;;18.70;92.60;;;;;;5031698;28;20029;-62
2021/05/21 05:55:15;;;;;;;8.25;2.10;;;18.60;92.60;;;;;;5031757;28;20075;-64
2021/05/21 05:57:40;;;;;;;8.63;2.17;;;18.60;92.50;;;;;;5030523;28;20041;-63
2021/05/21 06:00:07;;;;;;;7.78;2.13;;;18.60;92.50;;;;;;5031802;28;20065;-62
2021/05/21 06:02:32;;;;;;;6.28;2.13;;;18.60;92.60;;;;;;5031643;28;20036;-62
2021/05/21 06:05:02;;;;;;;7.80;2.20;;;18.70;92.60;;;;;;5031188;28;20021;-61
2021/05/21 06:07:28;;;;;;;7.88;1.98;;;18.70;92.50;;;;;;5031771;28;20025;-63
2021/05/21 06:09:53;;;;;;;12.07;2.58;;;18.70;92.60;;;;;;5031696;28;20036;-62
2021/05/21 06:12:19;;;;;;;13.10;2.80;;;18.80;93.50;;;;;;5031412;28;20381;-60
2021/05/21 06:14:45;;;;;;;14.65;3.00;;;18.70;92.70;;;;;;5031101;28;20029;-61
2021/05/21 06:17:10;;;;;;;14.90;3.28;;;18.70;92.20;;;;;;5031328;28;20026;-62
2021/05/21 06:19:36;;;;;;;15.15;3.72;;;18.60;92.00;;;;;;5031470;28;20080;-62
2021/05/21 06:22:02;;;;;;;15.35;3.13;;;18.50;91.90;;;;;;5031410;28;20036;-61
2021/05/21 06:24:27;;;;;;;15.48;3.42;;;18.50;91.70;;;;;;5031515;28;20350;-61
2021/05/21 06:29:37;;;;;;;12.85;3.55;;;18.30;91.40;;;;;;5031788;28;20060;-63
2021/05/21 06:32:03;;;;;;;18.58;4.05;;;18.30;91.60;;;;;;5031418;28;20068;-63
2021/05/21 06:34:29;;;;;;;15.07;3.25;;;18.40;91.60;;;;;;5031848;28;20025;-63
2021/05/21 06:36:54;;;;;;;17.10;3.17;;;18.40;91.50;;;;;;5032057;28;20381;-63
2021/05/21 06:39:20;;;;;;;12.13;3.33;;;18.50;91.60;;;;;;5031876;28;20104;-62
2021/05/21 06:41:45;;;;;;;11.15;3.00;;;18.50;91.70;;;;;;5031648;28;20156;-62
2021/05/21 06:44:11;;;;;;;12.55;3.05;;;18.60;91.80;;;;;;5031261;28;20125;-62
2021/05/21 06:46:37;;;;;;;12.77;2.75;;;18.60;91.90;;;;;;5031122;28;20473;-63
2021/05/21 06:49:05;;;;;;;8.40;2.65;;;18.60;92.00;;;;;;5031598;28;20025;-63
2021/05/21 06:51:31;;;;;;;12.93;2.78;;;18.60;92.10;;;;;;5031423;28;20041;-62
2021/05/21 06:53:56;;;;;;;11.18;2.90;;;18.60;92.10;;;;;;5031334;28;20025;-63
2021/05/21 06:56:22;;;;;;;11.02;2.60;;;18.60;92.20;;;;;;5030693;28;20458;-63
2021/05/21 06:58:47;;;;;;;9.93;2.38;;;18.60;92.20;;;;;;5034666;28;20065;-62
2021/05/21 07:01:13;;;;;;;11.75;2.70;;;18.70;92.20;;;;;;5034893;28;20458;-60
2021/05/21 07:03:39;;;;;;;8.95;2.70;;;18.80;92.20;;;;;;5035128;28;20033;-64
2021/05/21 07:06:04;;;;;;;11.07;3.00;;;18.80;92.20;;;;;;5034994;28;20148;-65
2021/05/21 07:08:30;;;;;;;9.73;2.70;;;18.70;92.40;;;;;;5035059;28;20029;-65
2021/05/21 07:10:56;;;;;;;10.45;2.47;;;18.80;92.30;;;;;;5035108;28;20366;-65
2021/05/21 07:13:22;;;;;;;10.38;2.05;;;18.80;92.30;;;;;;5033644;28;20040;-64
2021/05/21 07:15:48;;;;;;;7.47;2.28;;;18.80;92.30;;;;;;5033819;28;20032;-64
2021/05/21 07:18:14;;;;;;;7.68;2.60;;;18.80;92.30;;;;;;5031505;28;20392;-65
2021/05/21 07:20:45;;;;;;;9.20;2.30;;;18.80;92.30;;;;;;5033860;28;20026;-64
2021/05/21 07:23:11;;;;;;;8.00;2.45;;;18.80;92.30;;;;;;5034375;28;20029;-65
2021/05/21 07:25:36;;;;;;;12.25;2.63;;;18.80;92.40;;;;;;5034258;28;20029;-66
2021/05/21 07:28:02;;;;;;;8.13;2.25;;;18.70;92.40;;;;;;5034331;28;20033;-64
2021/05/21 07:30:28;;;;;;;7.75;2.25;;;18.70;92.50;;;;;;5034737;28;20025;-64
2021/05/21 07:32:54;;;;;;;6.43;2.10;;;18.70;92.50;;;;;;5033964;28;20029;-63
2021/05/21 07:35:19;;;;;;;8.60;2.65;;;18.70;92.50;;;;;;5033827;28;20029;-63
2021/05/21 07:37:46;;;;;;;10.35;2.50;;;18.70;92.60;;;;;;5034276;28;20043;-63
2021/05/21 07:40:12;;;;;;;11.95;3.00;;;18.70;92.50;;;;;;5034244;28;20057;-62
2021/05/21 07:42:38;;;;;;;9.25;2.53;;;18.70;92.50;;;;;;5033214;28;20061;-62
2021/05/21 07:45:08;;;;;;;11.07;2.70;;;18.70;92.50;;;;;;5033105;28;20021;-65
2021/05/21 07:47:34;;;;;;;7.85;2.53;;;18.70;92.50;;;;;;5033305;28;20037;-64
2021/05/21 07:50:00;;;;;;;9.00;2.40;;;18.70;92.50;;;;;;5034514;28;20022;-64
2021/05/21 07:52:25;;;;;;;7.50;2.53;;;18.70;92.40;;;;;;5034422;28;20067;-64
2021/05/21 07:54:51;;;;;;;9.50;2.47;;;18.70;92.40;;;;;;5034222;28;20562;-64
2021/05/21 07:57:17;;;;;;;6.93;2.42;;;18.60;92.30;;;;;;5034175;28;20030;-64
2021/05/21 07:59:42;;;;;;;10.20;2.58;;;18.60;92.40;;;;;;5034101;28;20033;-63
2021/05/21 08:02:08;;;;;;;7.22;2.28;;;18.60;92.40;;;;;;5033820;28;20022;-63
2021/05/21 08:04:33;;;;;;;9.48;2.60;;;18.60;92.30;;;;;;5034120;28;20053;-63
2021/05/21 08:06:59;;;;;;;9.57;2.30;;;18.60;92.30;;;;;;5033544;28;20026;-64
2021/05/21 08:09:25;;;;;;;7.53;2.30;;;18.60;92.30;;;;;;5033076;28;20470;-65
2021/05/21 08:11:51;;;;;;;8.15;2.55;;;18.60;92.60;;;;;;5034094;28;20056;-63
2021/05/21 08:14:17;;;;;;;6.38;1.95;;;18.70;92.20;;;;;;5049226;28;20103;-64
2021/05/21 08:16:42;;;;;;;11.10;2.85;;;18.70;92.00;;;;;;5033132;28;20022;-64
2021/05/21 08:19:08;;;;;;;8.88;2.35;;;18.80;91.90;;;;;;5034016;28;20041;-64
2021/05/21 08:21:35;;;;;;;9.10;2.63;;;18.80;91.90;;;;;;5033817;28;20074;-64
2021/05/21 08:24:00;;;;;;;10.25;2.50;;;18.90;91.70;;;;;;5034117;28;20030;-64
2021/05/21 08:26:26;;;;;;;7.35;1.92;;;19.00;91.60;;;;;;5033176;28;20437;-64
2021/05/21 08:28:56;;;;;;;9.00;2.25;;;19.00;91.60;;;;;;5033594;28;20099;-63
2021/05/21 08:31:22;;;;;;;8.52;2.35;;;19.00;91.60;;;;;;5033005;28;20029;-63
2021/05/21 08:33:49;;;;;;;6.93;2.03;;;18.90;91.60;;;;;;5023630;28;20026;-62
2021/05/21 08:36:15;;;;;;;7.85;2.13;;;18.90;91.70;;;;;;5033708;28;20049;-64
2021/05/21 08:38:44;;;;;;;7.32;2.58;;;18.90;91.70;;;;;;5033338;28;20519;-63
2021/05/21 08:41:17;;;;;;;8.07;2.65;;;18.90;91.70;;;;;;5033309;28;20030;-63
2021/05/21 08:43:46;;;;;;;13.80;2.80;;;18.90;91.70;;;;;;5032235;28;20048;-64
2021/05/21 08:46:13;;;;;;;7.18;2.28;;;18.90;91.70;;;;;;5033166;28;20036;-63
2021/05/21 08:48:40;;;;;;;8.65;2.70;;;18.90;91.70;;;;;;5033460;28;20108;-64
2021/05/21 08:51:06;;;;;;;6.80;2.20;;;18.80;91.70;;;;;;5033235;28;20057;-63
2021/05/21 08:53:31;;;;;;;6.45;2.00;;;18.80;91.70;;;;;;5033670;28;20075;-65
2021/05/21 08:55:58;;;;;;;9.10;2.30;;;18.80;91.70;;;;;;5032816;28;20056;-64
2021/05/21 08:58:24;;;;;;;8.07;2.22;;;18.80;91.70;;;;;;5032866;28;20500;-64
2021/05/21 09:00:49;;;;;;;8.05;2.22;;;18.80;91.80;;;;;;5032766;28;20033;-62
2021/05/21 09:03:26;;;;;;;7.93;2.20;;;18.70;91.70;;;;;;5032746;28;20037;-63
2021/05/21 09:06:23;;;;;;;9.60;2.10;;;18.70;91.70;;;;;;5031758;28;20634;-62
2021/05/21 09:08:50;;;;;;;8.05;2.30;;;18.70;91.80;;;;;;5033110;28;20068;-64
2021/05/21 09:11:37;;;;;;;9.88;2.22;;;18.60;91.80;;;;;;5032862;28;20108;-60
2021/05/21 09:14:06;;;;;;;8.38;2.45;;;18.60;91.70;;;;;;5032967;28;20021;-64
2021/05/21 09:16:38;;;;;;;7.82;2.40;;;18.60;91.80;;;;;;5032991;28;20029;-63
2021/05/21 09:19:15;;;;;;;7.63;2.20;;;18.60;91.80;;;;;;5032864;28;20497;-64
2021/05/21 09:22:00;;;;;;;9.32;2.30;;;18.60;91.80;;;;;;5031945;28;20025;-64
2021/05/21 09:24:34;;;;;;;8.15;2.20;;;18.60;91.70;;;;;;5032284;28;20110;-63
2021/05/21 09:27:01;;;;;;;7.53;2.08;;;18.70;91.60;;;;;;5032014;28;20053;-64
2021/05/21 09:29:43;;;;;;;8.25;2.40;;;18.70;91.50;;;;;;5032652;28;20461;-64
2021/05/21 09:32:28;;;;;;;7.53;2.00;;;18.80;91.50;;;;;;5032707;28;20032;-65
2021/05/21 09:35:12;;;;;;;8.65;2.30;;;18.80;91.50;;;;;;5032726;28;20028;-64
2021/05/21 09:37:42;;;;;;;8.63;2.38;;;18.80;91.40;;;;;;5032518;28;20032;-63
2021/05/21 09:40:37;;;;;;;9.10;2.35;;;18.80;91.40;;;;;;5032770;28;20112;-63
2021/05/21 09:43:04;;;;;;;6.28;2.15;;;18.90;91.40;;;;;;5031956;28;20038;-64
2021/05/21 09:45:39;;;;;;;7.88;2.00;;;18.90;91.40;;;;;;5032206;28;20389;-64
2021/05/21 09:48:06;;;;;;;6.63;1.85;;;18.90;91.30;;;;;;5031809;28;20376;-64
2021/05/21 09:50:34;;;;;;;8.02;2.30;;;18.90;91.30;;;;;;5031997;28;20033;-64
2021/05/21 09:53:02;;;;;;;7.93;2.05;;;18.90;91.30;;;;;;5032408;28;20068;-65
2021/05/21 09:55:43;;;;;;;6.70;2.13;;;18.90;91.20;;;;;;5032250;28;20103;-64
2021/05/21 09:58:22;;;;;;;7.38;1.90;;;18.90;91.20;;;;;;5032407;28;20040;-64
2021/05/21 10:01:07;;;;;;;8.63;2.35;;;18.90;91.10;;;;;;5029758;28;20052;-64
2021/05/21 10:03:33;;;;;;;7.45;2.33;;;19.00;91.10;;;;;;5032284;28;20029;-63
2021/05/21 10:05:59;;;;;;;8.13;2.10;;;18.90;91.10;;;;;;5031924;28;20053;-65
2021/05/21 10:08:25;;;;;;;7.18;1.92;;;18.90;91.00;;;;;;5031320;28;20024;-64
2021/05/21 10:10:51;;;;;;;7.53;2.05;;;18.90;91.10;;;;;;5031973;28;20481;-64
2021/05/21 10:13:17;;;;;;;10.30;2.33;;;18.90;91.30;;;;;;5031794;28;20029;-65
2021/05/21 10:15:43;;;;;;;9.77;2.72;;;18.90;91.00;;;;;;5031166;28;20029;-64
2021/05/21 10:18:13;;;;;;;7.65;1.95;;;18.90;91.10;;;;;;5031144;28;20052;-63
2021/05/21 10:20:40;;;;;;;7.97;2.40;;;18.90;91.10;;;;;;5030813;28;20085;-64
2021/05/21 10:23:07;;;;;;;7.65;2.00;;;18.90;91.00;;;;;;5029936;28;20037;-65
2021/05/21 10:25:35;;;;;;;6.60;1.67;;;18.90;91.00;;;;;;5030877;28;20033;-65
2021/05/21 10:28:08;;;;;;;7.10;2.20;;;19.00;91.00;;;;;;5031595;28;20041;-64
2021/05/21 10:30:35;;;;;;;5.20;1.80;;;19.00;91.00;;;;;;5031896;28;20416;-65
2021/05/21 10:33:22;;;;;;;5.05;1.60;;;19.00;91.00;;;;;;5028481;28;20037;-65
2021/05/21 10:35:48;;;;;;;6.85;1.83;;;19.00;91.10;;;;;;5025051;28;20025;-66
2021/05/21 10:38:25;;;;;;;6.78;1.92;;;19.20;91.00;;;;;;5034050;28;20397;-64
2021/05/21 10:41:16;;;;;;;9.93;1.95;;;19.50;90.80;;;;;;5033895;28;20061;-65
2021/05/21 10:43:53;;;;;;;5.38;1.58;;;19.60;90.70;;;;;;5034194;28;20033;-64
2021/05/21 10:46:23;;;;;;;7.78;1.90;;;19.70;90.60;;;;;;5034285;28;20104;-64
2021/05/21 10:48:51;;;;;;;4.07;2.03;;;19.70;90.60;;;;;;5034596;28;20043;-64
2021/05/21 10:51:17;;;;;;;7.20;1.92;;;19.70;90.50;;;;;;5034904;28;20030;-68
2021/05/21 10:53:46;;;;;;;6.22;1.98;;;19.70;90.40;;;;;;5035038;28;20539;-64
2021/05/21 10:56:11;;;;;;;6.18;1.52;;;19.80;90.40;;;;;;5035846;28;20037;-64
2021/05/21 10:58:45;;;;;;;5.22;1.88;;;20.00;90.30;;;;;;5033849;28;20443;-65
2021/05/21 11:01:15;;;;;;;4.82;1.40;;;20.20;90.00;;;;;;5035445;28;20017;-65
2021/05/21 11:04:00;;;;;;;5.72;1.58;;;20.50;89.40;;;;;;5034398;28;20042;-63
2021/05/21 11:06:27;;;;;;;5.00;1.50;;;20.60;89.10;;;;;;5035527;28;20044;-64
2021/05/21 11:09:01;;;;;;;4.82;1.50;;;20.50;89.00;;;;;;5034696;28;20017;-65
2021/05/21 11:11:41;;;;;;;4.35;1.58;;;20.60;89.00;;;;;;5034495;28;20025;-64
2021/05/21 11:14:23;;;;;;;5.55;1.77;;;20.70;88.80;;;;;;5034893;28;20060;-64
2021/05/21 11:16:53;;;;;;;5.05;1.73;;;20.70;88.60;;;;;;5034297;28;20030;-64
2021/05/21 11:19:28;;;;;;;5.82;2.00;;;20.80;88.60;;;;;;5033495;28;20350;-64
2021/05/21 11:22:08;;;;;;;6.28;1.83;;;20.80;88.50;;;;;;5034164;28;20083;-63
2021/05/21 11:24:41;;;;;;;6.43;1.92;;;20.90;88.30;;;;;;5034132;28;20428;-65
2021/05/21 11:27:08;;;;;;;7.28;1.83;;;21.00;88.10;;;;;;5025161;28;20389;-63
2021/05/21 11:29:35;;;;;;;6.25;2.00;;;20.90;87.90;;;;;;5033895;28;20060;-66
2021/05/21 11:32:01;;;;;;;5.53;1.95;;;20.90;88.20;;;;;;5032550;28;20147;-64
2021/05/21 11:34:27;;;;;;;7.05;1.58;;;21.00;87.90;;;;;;5030164;28;20033;-65
2021/05/21 11:36:55;;;;;;;3.63;1.40;;;21.00;87.70;;;;;;5031623;28;20053;-65
2021/05/21 11:39:25;;;;;;;6.30;1.70;;;21.20;87.40;;;;;;5032858;28;20029;-63
2021/05/21 11:41:51;;;;;;;5.90;1.27;;;21.20;87.40;;;;;;5033724;28;20022;-65
2021/05/21 11:44:17;;;;;;;5.57;1.63;;;21.30;87.30;;;;;;5031549;28;20056;-66
2021/05/21 11:46:44;;;;;;;4.25;1.50;;;21.10;87.30;;;;;;5030577;28;20136;-65
2021/05/21 11:49:12;;;;;;;5.07;1.52;;;21.00;88.30;;;;;;5034336;28;20083;-65
2021/05/21 11:51:38;;;;;;;6.72;1.80;;;20.90;87.70;;;;;;5032569;28;20113;-66
2021/05/21 11:54:05;;;;;;;6.75;1.75;;;21.00;87.50;;;;;;5031876;28;20121;-66
2021/05/21 11:56:34;;;;;;;7.03;2.00;;;20.90;87.40;;;;;;5018194;28;20021;-66
2021/05/21 11:59:04;;;;;;;7.00;2.00;;;20.80;87.10;;;;;;5032352;28;20030;-66
2021/05/21 12:01:31;;;;;;;5.63;1.40;;;20.70;87.30;;;;;;5032331;28;20029;-66
2021/05/21 12:04:04;;;;;;;5.57;1.70;;;20.60;87.50;;;;;;5032543;28;20116;-66
2021/05/21 12:06:30;;;;;;;6.22;1.63;;;20.60;87.60;;;;;;5034292;28;20101;-66
2021/05/21 12:08:56;;;;;;;5.90;1.92;;;20.50;87.90;;;;;;5034133;28;20120;-66
2021/05/21 12:11:25;;;;;;;4.68;1.77;;;20.40;88.10;;;;;;5034102;28;20022;-66
2021/05/21 12:13:50;;;;;;;5.13;1.65;;;20.40;88.20;;;;;;5034117;28;20021;-65
2021/05/21 12:16:18;;;;;;;6.47;1.98;;;20.30;88.30;;;;;;5033866;28;20583;-65
2021/05/21 12:18:48;;;;;;;6.25;1.70;;;20.30;88.20;;;;;;5033191;28;20034;-64
2021/05/21 12:21:21;;;;;;;4.97;1.70;;;20.30;88.20;;;;;;5034059;28;20028;-66
2021/05/21 12:23:50;;;;;;;3.47;1.23;;;20.20;88.30;;;;;;5033774;28;20029;-66
2021/05/21 12:26:18;;;;;;;6.57;1.73;;;20.20;88.30;;;;;;5033303;28;20037;-66
2021/05/21 12:28:44;;;;;;;4.63;1.35;;;20.20;88.30;;;;;;5033669;28;20079;-66
2021/05/21 12:31:11;;;;;;;4.88;1.63;;;20.20;88.30;;;;;;5034119;28;20033;-66
2021/05/21 12:33:41;;;;;;;4.05;1.48;;;20.10;89.10;;;;;;5033811;28;20037;-65
2021/05/21 12:36:11;;;;;;;3.97;1.23;;;20.10;88.40;;;;;;5033791;28;20029;-66
2021/05/21 12:38:49;;;;;;;6.47;1.45;;;20.10;88.40;;;;;;5033399;28;20065;-66
2021/05/21 12:41:15;;;;;;;6.13;1.75;;;20.00;88.40;;;;;;5033416;28;20079;-66
2021/05/21 12:43:41;;;;;;;4.38;1.60;;;20.00;88.90;;;;;;5033482;28;20075;-66
2021/05/21 12:46:08;;;;;;;6.38;1.58;;;20.00;88.10;;;;;;5033376;28;20033;-65
2021/05/21 12:48:45;;;;;;;5.32;1.52;;;20.00;88.00;;;;;;5033287;28;20108;-65
2021/05/21 12:51:12;;;;;;;4.28;1.30;;;19.90;88.00;;;;;;5032715;28;20029;-66